Time;durP1;ratioP1;P1;durP2;ratioP2;P2;SDS_P1;SDS_P2;PMS_P1;PMS_P2;Temp;Humidity;BMP_temperature;BMP_pressure;BME280_temperature;BME280_humidity;BME280_pressure;Samples;Min_cycle;Max_cycle;Signal;HPM_P1;HPM_P2
2023/12/25 00:02:13;;;;;;;2.23;0.80;;;8.90;99.90;;;;;;5108021;28;20272;-75
2023/12/25 00:04:41;;;;;;;1.23;0.93;;;8.90;99.90;;;;;;5109554;27;20211;-75
2023/12/25 00:07:10;;;;;;;1.53;0.80;;;8.90;99.90;;;;;;5104785;28;20204;-75
2023/12/25 00:09:38;;;;;;;1.87;0.90;;;9.00;99.90;;;;;;5110842;27;20202;-75
2023/12/25 00:12:06;;;;;;;2.93;1.00;;;8.90;99.90;;;;;;5090347;28;20206;-75
2023/12/25 00:14:34;;;;;;;2.17;1.10;;;8.90;99.90;;;;;;5106410;28;20525;-75
2023/12/25 00:17:01;;;;;;;2.30;1.00;;;8.90;99.90;;;;;;5101117;28;20196;-75
2023/12/25 00:19:28;;;;;;;2.67;0.93;;;9.00;99.90;;;;;;5112318;28;20646;-76
2023/12/25 00:21:54;;;;;;;2.37;0.80;;;8.90;99.90;;;;;;5105026;28;20198;-75
2023/12/25 00:24:21;;;;;;;5.67;1.07;;;8.90;99.90;;;;;;5093060;28;20212;-75
2023/12/25 00:26:50;;;;;;;0.63;0.63;;;8.90;99.90;;;;;;5117234;28;20246;-75
2023/12/25 00:29:17;;;;;;;2.40;1.17;;;8.90;99.90;;;;;;5098044;27;20210;-75
2023/12/25 00:31:44;;;;;;;4.73;1.20;;;8.90;99.90;;;;;;5107812;27;20646;-75
2023/12/25 00:34:13;;;;;;;5.33;0.80;;;8.90;99.90;;;;;;5094971;27;20200;-75
2023/12/25 00:36:40;;;;;;;4.67;1.30;;;8.90;99.90;;;;;;5095263;28;20204;-75
2023/12/25 00:39:07;;;;;;;3.13;1.00;;;8.90;99.90;;;;;;5112893;28;20218;-75
2023/12/25 00:41:35;;;;;;;2.07;0.83;;;8.90;99.90;;;;;;5117071;28;20182;-74
2023/12/25 00:44:03;;;;;;;2.07;1.10;;;8.90;99.90;;;;;;5114392;28;20215;-74
2023/12/25 00:46:30;;;;;;;4.03;1.30;;;9.00;99.90;;;;;;5095318;28;20257;-74
2023/12/25 00:48:57;;;;;;;3.43;1.00;;;8.90;99.90;;;;;;5104425;28;20759;-74
2023/12/25 00:51:25;;;;;;;3.00;1.00;;;8.90;99.90;;;;;;5120480;27;20231;-74
2023/12/25 00:53:52;;;;;;;2.90;0.90;;;9.00;99.90;;;;;;5098332;28;20232;-74
2023/12/25 00:56:19;;;;;;;3.17;1.00;;;9.00;99.90;;;;;;5097872;28;20629;-74
2023/12/25 00:58:46;;;;;;;3.67;0.90;;;9.00;99.90;;;;;;5096108;28;20653;-74
2023/12/25 01:01:14;;;;;;;2.87;1.00;;;9.00;99.90;;;;;;5103295;28;20710;-74
2023/12/25 01:03:42;;;;;;;2.00;0.80;;;9.00;99.90;;;;;;5098179;28;20212;-74
2023/12/25 01:06:09;;;;;;;2.57;0.83;;;9.10;99.90;;;;;;5103049;28;20428;-74
2023/12/25 01:08:36;;;;;;;4.17;1.13;;;9.00;99.90;;;;;;5104158;28;20221;-75
2023/12/25 01:11:05;;;;;;;5.70;1.30;;;9.10;99.90;;;;;;5107142;28;20658;-75
2023/12/25 01:13:32;;;;;;;4.50;1.07;;;9.10;99.90;;;;;;5110886;28;20193;-74
2023/12/25 01:15:59;;;;;;;1.13;0.87;;;9.10;99.90;;;;;;5110480;27;20230;-74
2023/12/25 01:18:28;;;;;;;4.77;1.40;;;9.00;99.90;;;;;;5087107;28;20756;-74
2023/12/25 01:20:55;;;;;;;2.83;1.10;;;9.00;99.90;;;;;;5098637;28;20283;-75
2023/12/25 01:23:22;;;;;;;3.53;1.23;;;9.10;99.90;;;;;;5113067;28;20251;-75
2023/12/25 01:25:49;;;;;;;2.53;0.87;;;9.10;99.90;;;;;;5120250;27;20223;-75
2023/12/25 01:28:16;;;;;;;3.13;0.83;;;9.10;99.90;;;;;;5086868;28;20204;-75
2023/12/25 01:30:43;;;;;;;2.03;0.87;;;9.10;99.90;;;;;;5110184;27;20195;-75
2023/12/25 01:33:10;;;;;;;4.50;1.10;;;9.10;99.90;;;;;;5115680;27;20264;-74
2023/12/25 01:35:39;;;;;;;2.07;0.83;;;9.00;99.90;;;;;;5116567;28;20253;-74
2023/12/25 01:38:06;;;;;;;6.10;1.40;;;9.00;99.90;;;;;;5112841;28;20195;-75
2023/12/25 01:40:33;;;;;;;4.93;1.00;;;9.00;99.90;;;;;;5115531;27;20197;-74
2023/12/25 01:43:00;;;;;;;4.00;1.23;;;9.00;99.90;;;;;;5111238;28;20201;-75
2023/12/25 01:45:27;;;;;;;1.70;0.70;;;9.00;99.90;;;;;;5094721;28;20258;-75
2023/12/25 01:47:54;;;;;;;2.77;1.07;;;9.00;99.90;;;;;;5104550;28;20204;-74
2023/12/25 01:50:21;;;;;;;4.53;0.80;;;9.00;99.90;;;;;;5109988;27;20203;-74
2023/12/25 01:52:51;;;;;;;2.67;0.87;;;9.00;99.90;;;;;;5094689;28;20670;-74
2023/12/25 01:55:18;;;;;;;2.63;1.00;;;9.00;99.90;;;;;;5113493;27;20269;-74
2023/12/25 01:57:45;;;;;;;2.93;1.10;;;8.90;99.90;;;;;;5093374;28;20200;-74
2023/12/25 02:03:12;;;;;;;4.50;1.37;;;8.90;99.90;;;;;;5261256;23;20252;-66
2023/12/25 02:05:40;;;;;;;4.10;1.10;;;8.90;99.90;;;;;;5024332;28;20205;-67
2023/12/25 02:08:13;;;;;;;4.37;1.20;;;8.90;99.90;;;;;;5031997;28;20621;-68
2023/12/25 02:10:40;;;;;;;2.47;1.20;;;8.90;99.90;;;;;;5031256;28;20206;-67
2023/12/25 02:13:07;;;;;;;7.03;1.57;;;8.90;99.90;;;;;;5031387;28;20371;-67
2023/12/25 02:15:34;;;;;;;2.83;1.23;;;8.90;99.90;;;;;;5030756;28;20335;-68
2023/12/25 02:18:03;;;;;;;4.43;1.47;;;8.90;99.90;;;;;;5030631;28;20192;-68
2023/12/25 02:20:30;;;;;;;5.43;1.57;;;8.90;99.90;;;;;;5010172;28;20592;-68
2023/12/25 02:23:00;;;;;;;11.33;2.00;;;8.90;99.90;;;;;;5031116;28;20624;-67
2023/12/25 02:25:34;;;;;;;8.80;1.93;;;9.00;99.90;;;;;;5013089;28;20280;-68
2023/12/25 02:28:02;;;;;;;5.07;1.53;;;9.00;99.90;;;;;;5012902;28;20269;-67
2023/12/25 02:30:30;;;;;;;4.63;1.47;;;9.00;99.90;;;;;;5012994;28;20465;-68
2023/12/25 02:32:57;;;;;;;7.53;1.70;;;9.00;99.90;;;;;;5030660;28;20202;-68
2023/12/25 02:35:25;;;;;;;15.10;2.83;;;9.00;99.90;;;;;;5031494;28;20672;-68
2023/12/25 02:37:52;;;;;;;8.30;1.80;;;9.00;99.90;;;;;;5031572;28;20859;-67
2023/12/25 02:40:21;;;;;;;9.80;2.20;;;9.00;99.90;;;;;;5030538;28;20198;-67
2023/12/25 02:42:48;;;;;;;14.97;2.23;;;9.00;99.90;;;;;;5017914;28;20207;-67
2023/12/25 02:45:17;;;;;;;8.63;2.33;;;9.00;99.90;;;;;;5011812;28;20244;-67
2023/12/25 02:47:44;;;;;;;7.73;2.03;;;9.00;99.90;;;;;;5029899;28;20197;-67
2023/12/25 02:50:32;;;;;;;8.90;2.17;;;9.00;99.90;;;;;;5029785;28;20352;-67
2023/12/25 02:52:59;;;;;;;12.27;2.63;;;9.00;99.90;;;;;;5027473;28;20202;-67
2023/12/25 02:55:26;;;;;;;10.33;2.40;;;9.10;99.90;;;;;;5013018;28;20626;-67
2023/12/25 02:57:54;;;;;;;10.93;2.23;;;9.10;99.90;;;;;;5012182;28;20209;-67
2023/12/25 03:00:23;;;;;;;9.40;2.20;;;9.10;99.90;;;;;;5030297;28;20600;-68
2023/12/25 03:02:50;;;;;;;10.33;2.40;;;9.00;99.90;;;;;;5026058;28;20316;-68
2023/12/25 03:05:17;;;;;;;14.40;3.00;;;9.10;99.90;;;;;;5010931;28;20273;-68
2023/12/25 03:07:44;;;;;;;13.73;3.17;;;9.10;99.90;;;;;;4992984;28;20283;-68
2023/12/25 03:10:11;;;;;;;6.43;2.17;;;9.10;99.90;;;;;;4992537;28;20214;-68
2023/12/25 03:12:38;;;;;;;8.70;2.57;;;9.10;99.90;;;;;;4995205;28;20301;-68
2023/12/25 03:15:06;;;;;;;13.07;2.70;;;9.10;99.90;;;;;;4998549;28;20199;-68
2023/12/25 03:17:34;;;;;;;10.40;2.00;;;9.10;99.90;;;;;;5011188;28;20283;-68
2023/12/25 03:20:04;;;;;;;11.77;2.30;;;9.20;99.90;;;;;;5010583;28;20238;-66
2023/12/25 03:22:32;;;;;;;7.77;2.03;;;9.20;99.90;;;;;;5011535;28;20199;-68
2023/12/25 03:25:00;;;;;;;15.20;2.40;;;9.20;99.90;;;;;;5010913;28;20213;-67
2023/12/25 03:27:27;;;;;;;17.80;2.73;;;9.20;99.90;;;;;;5015853;28;20290;-68
2023/12/25 03:29:54;;;;;;;7.17;2.03;;;9.20;99.90;;;;;;5014163;28;20306;-68
2023/12/25 03:32:22;;;;;;;9.30;1.67;;;9.20;99.90;;;;;;5000357;28;20208;-68
2023/12/25 03:34:50;;;;;;;9.10;2.13;;;9.20;99.90;;;;;;5012529;28;20199;-68
2023/12/25 03:37:18;;;;;;;12.77;2.30;;;9.20;99.90;;;;;;5020803;28;20239;-68
2023/12/25 03:39:45;;;;;;;8.67;1.67;;;9.30;99.90;;;;;;5014536;28;20193;-68
2023/12/25 03:42:12;;;;;;;9.47;2.00;;;9.30;99.90;;;;;;5016354;28;20300;-68
2023/12/25 03:44:39;;;;;;;9.83;2.40;;;9.30;99.90;;;;;;5016366;28;20693;-68
2023/12/25 03:47:06;;;;;;;4.43;1.70;;;9.30;99.90;;;;;;5016563;28;20226;-67
2023/12/25 03:49:33;;;;;;;9.77;2.40;;;9.30;99.90;;;;;;5013630;28;20274;-68
2023/12/25 03:52:02;;;;;;;10.43;2.13;;;9.30;99.90;;;;;;5015097;28;20223;-68
2023/12/25 03:54:30;;;;;;;13.37;2.47;;;9.30;99.90;;;;;;4992913;28;20223;-68
2023/12/25 03:56:57;;;;;;;9.47;2.17;;;9.30;99.90;;;;;;4988730;28;20261;-68
2023/12/25 03:59:24;;;;;;;13.07;2.23;;;9.30;99.90;;;;;;4995659;28;20308;-68
2023/12/25 04:01:51;;;;;;;9.63;1.90;;;9.30;99.90;;;;;;4992070;28;20243;-68
2023/12/25 04:04:18;;;;;;;5.20;1.90;;;9.30;99.90;;;;;;5008821;28;20308;-68
2023/12/25 04:06:45;;;;;;;7.60;1.67;;;9.30;99.90;;;;;;5006685;28;20306;-66
2023/12/25 04:09:13;;;;;;;11.03;2.03;;;9.40;99.90;;;;;;5011259;28;20200;-67
2023/12/25 04:11:40;;;;;;;11.73;2.80;;;9.30;99.90;;;;;;5011939;28;20205;-67
2023/12/25 04:14:09;;;;;;;8.67;2.10;;;9.30;99.90;;;;;;5029160;28;20382;-67
2023/12/25 04:16:36;;;;;;;10.37;1.77;;;9.40;99.90;;;;;;5011549;28;20215;-68
2023/12/25 04:19:05;;;;;;;8.00;1.90;;;9.40;99.90;;;;;;5010890;28;20209;-68
2023/12/25 04:21:33;;;;;;;10.43;1.93;;;9.30;99.90;;;;;;5029778;28;20194;-68
2023/12/25 04:24:01;;;;;;;10.80;2.17;;;9.40;99.90;;;;;;5027526;28;20699;-67
2023/12/25 04:26:29;;;;;;;10.33;2.17;;;9.40;99.90;;;;;;5027963;28;20220;-68
2023/12/25 04:28:57;;;;;;;10.80;2.33;;;9.40;99.90;;;;;;5011741;28;20199;-68
2023/12/25 04:31:24;;;;;;;6.17;1.40;;;9.40;99.90;;;;;;5011428;28;20199;-68
2023/12/25 04:33:51;;;;;;;9.83;1.97;;;9.40;99.90;;;;;;5011282;28;20236;-68
2023/12/25 04:36:21;;;;;;;8.47;2.00;;;9.50;99.90;;;;;;5011877;28;20197;-68
2023/12/25 04:38:48;;;;;;;6.53;1.67;;;9.50;99.90;;;;;;5012045;28;20297;-68
2023/12/25 04:41:21;;;;;;;7.70;1.63;;;9.50;99.90;;;;;;5010694;28;20639;-68
2023/12/25 04:43:51;;;;;;;7.73;2.27;;;9.50;99.90;;;;;;5011708;28;20648;-68
2023/12/25 04:46:18;;;;;;;10.47;1.90;;;9.50;99.90;;;;;;5011079;28;20236;-68
2023/12/25 04:48:45;;;;;;;8.53;1.97;;;9.50;99.90;;;;;;5010883;28;20621;-68
2023/12/25 04:51:12;;;;;;;7.60;1.87;;;9.50;99.90;;;;;;5026376;28;20209;-68
2023/12/25 04:53:39;;;;;;;8.93;2.10;;;9.50;99.90;;;;;;5011997;28;20303;-69
2023/12/25 04:56:10;;;;;;;9.27;1.57;;;9.50;99.90;;;;;;5010221;28;20658;-69
2023/12/25 04:58:37;;;;;;;5.73;1.67;;;9.50;99.90;;;;;;5023680;28;20248;-67
2023/12/25 05:01:06;;;;;;;5.43;1.23;;;9.50;99.90;;;;;;5028270;28;20208;-67
2023/12/25 05:03:33;;;;;;;8.23;1.60;;;9.50;99.90;;;;;;5029214;28;20594;-67
2023/12/25 05:06:00;;;;;;;9.37;2.10;;;9.50;99.90;;;;;;5009370;28;20242;-68
2023/12/25 05:08:28;;;;;;;6.13;1.80;;;9.50;99.90;;;;;;5011655;28;20213;-68
2023/12/25 05:10:58;;;;;;;9.13;1.43;;;9.50;99.90;;;;;;5010779;28;20322;-68
2023/12/25 05:13:27;;;;;;;4.73;1.77;;;9.50;99.90;;;;;;5014587;28;20197;-67
2023/12/25 05:15:55;;;;;;;4.03;1.20;;;9.50;99.90;;;;;;5014582;28;20195;-68
2023/12/25 05:18:24;;;;;;;3.60;1.40;;;9.50;99.90;;;;;;5031983;28;20271;-67
2023/12/25 05:20:51;;;;;;;9.37;1.93;;;9.50;99.90;;;;;;5014778;28;20641;-68
2023/12/25 05:23:18;;;;;;;8.90;1.70;;;9.50;99.90;;;;;;5032889;28;20197;-68
2023/12/25 05:25:45;;;;;;;7.97;1.60;;;9.40;99.90;;;;;;5032201;28;20217;-68
2023/12/25 05:28:12;;;;;;;8.10;1.70;;;9.40;99.90;;;;;;5032288;28;20286;-68
2023/12/25 05:30:39;;;;;;;9.43;1.93;;;9.40;99.90;;;;;;5032265;28;20545;-68
2023/12/25 05:33:06;;;;;;;9.80;2.53;;;9.40;99.90;;;;;;5032156;28;20208;-68
2023/12/25 05:35:35;;;;;;;11.90;2.40;;;9.40;99.90;;;;;;5032469;28;20198;-68
2023/12/25 05:38:02;;;;;;;10.53;2.20;;;9.40;99.90;;;;;;5031920;28;20284;-68
2023/12/25 05:40:29;;;;;;;11.77;2.47;;;9.40;99.90;;;;;;5031731;28;20262;-68
2023/12/25 05:42:56;;;;;;;4.87;1.60;;;9.40;99.90;;;;;;5014083;28;20267;-68
2023/12/25 05:45:23;;;;;;;13.00;2.43;;;9.40;99.90;;;;;;5031671;28;20223;-67
2023/12/25 05:47:50;;;;;;;8.90;1.70;;;9.40;99.90;;;;;;5031637;28;20297;-69
2023/12/25 05:50:18;;;;;;;13.87;2.90;;;9.40;99.90;;;;;;5028001;28;20719;-69
2023/12/25 05:52:46;;;;;;;6.70;1.77;;;9.40;99.90;;;;;;5031890;28;20208;-68
2023/12/25 05:55:13;;;;;;;12.03;2.00;;;9.40;99.90;;;;;;5032099;28;20230;-68
2023/12/25 05:57:40;;;;;;;8.13;1.67;;;9.40;99.90;;;;;;5026276;28;20288;-66
2023/12/25 06:00:08;;;;;;;6.87;1.63;;;9.40;99.90;;;;;;5032373;28;20228;-66
2023/12/25 06:02:41;;;;;;;7.63;1.67;;;9.40;99.90;;;;;;5030852;28;20238;-68
2023/12/25 06:05:09;;;;;;;7.20;2.03;;;9.40;99.90;;;;;;5014146;28;20204;-67
2023/12/25 06:07:36;;;;;;;9.50;1.80;;;9.40;99.90;;;;;;5031206;28;20244;-68
2023/12/25 06:10:04;;;;;;;11.03;2.10;;;9.40;99.90;;;;;;5013741;28;20212;-67
2023/12/25 06:12:32;;;;;;;12.67;2.73;;;9.40;99.90;;;;;;5031769;28;20199;-67
2023/12/25 06:15:03;;;;;;;6.53;2.20;;;9.60;99.90;;;;;;5031883;28;20204;-68
2023/12/25 06:17:30;;;;;;;6.13;1.90;;;9.40;99.90;;;;;;5030993;28;20196;-67
2023/12/25 06:19:57;;;;;;;8.30;1.70;;;9.40;99.90;;;;;;5031092;28;20216;-69
2023/12/25 06:22:24;;;;;;;8.97;1.70;;;9.40;99.90;;;;;;5031356;28;20240;-67
2023/12/25 06:24:51;;;;;;;9.43;1.97;;;9.40;99.90;;;;;;5031264;28;20317;-68
2023/12/25 06:27:20;;;;;;;10.77;2.03;;;9.40;99.90;;;;;;5031326;28;20218;-68
2023/12/25 06:29:47;;;;;;;5.77;1.50;;;9.40;99.90;;;;;;5031439;28;20240;-68
2023/12/25 06:32:14;;;;;;;11.27;1.90;;;9.40;99.90;;;;;;5030932;28;20201;-68
2023/12/25 06:34:41;;;;;;;10.30;2.33;;;9.40;99.90;;;;;;5029406;28;20664;-68
2023/12/25 06:37:08;;;;;;;10.70;2.57;;;9.40;99.90;;;;;;5031090;28;20219;-67
2023/12/25 06:39:35;;;;;;;9.73;2.40;;;9.40;99.90;;;;;;5026345;28;20226;-67
2023/12/25 06:42:02;;;;;;;13.80;2.70;;;9.50;99.90;;;;;;5030873;28;20262;-67
2023/12/25 06:44:30;;;;;;;9.47;1.90;;;9.50;99.90;;;;;;5031029;28;20564;-68
2023/12/25 06:46:57;;;;;;;9.03;2.37;;;9.50;99.90;;;;;;5012726;28;20230;-66
2023/12/25 06:49:24;;;;;;;10.40;2.40;;;9.50;99.90;;;;;;5029811;28;20275;-67
2023/12/25 06:51:51;;;;;;;8.33;1.90;;;9.40;99.90;;;;;;5030642;28;20246;-67
2023/12/25 06:54:18;;;;;;;12.13;2.87;;;9.50;99.90;;;;;;5029934;28;20295;-66
2023/12/25 06:56:45;;;;;;;9.23;1.83;;;9.50;99.90;;;;;;5027926;28;20229;-67
2023/12/25 06:59:12;;;;;;;7.77;1.73;;;9.50;99.90;;;;;;5026990;28;20653;-67
2023/12/25 07:01:41;;;;;;;11.53;2.00;;;9.50;99.90;;;;;;5030318;28;20226;-68
2023/12/25 07:04:09;;;;;;;8.40;1.93;;;9.50;99.90;;;;;;5012069;28;20251;-67
2023/12/25 07:06:36;;;;;;;7.03;1.93;;;9.50;99.90;;;;;;5030279;28;20210;-68
2023/12/25 07:09:03;;;;;;;11.20;2.13;;;9.50;99.90;;;;;;5030453;28;20237;-67
2023/12/25 07:11:31;;;;;;;4.37;1.47;;;9.50;99.90;;;;;;5012651;28;20202;-67
2023/12/25 07:13:59;;;;;;;7.70;1.80;;;9.50;99.90;;;;;;5030138;28;20285;-67
2023/12/25 07:16:26;;;;;;;11.10;2.07;;;9.60;99.90;;;;;;5012484;28;20196;-68
2023/12/25 07:18:55;;;;;;;16.93;2.50;;;9.50;99.90;;;;;;5029139;28;20201;-68
2023/12/25 07:21:22;;;;;;;12.10;2.63;;;9.60;99.90;;;;;;5030432;28;20198;-68
2023/12/25 07:23:49;;;;;;;6.67;1.80;;;9.60;99.90;;;;;;5030504;28;20285;-67
2023/12/25 07:26:18;;;;;;;5.07;1.30;;;9.60;99.90;;;;;;5020858;28;20267;-68
2023/12/25 07:28:45;;;;;;;7.23;2.30;;;9.50;99.90;;;;;;5030179;28;20208;-68
2023/12/25 07:31:12;;;;;;;10.53;2.20;;;9.50;99.90;;;;;;5029637;28;20280;-67
2023/12/25 07:33:39;;;;;;;10.97;2.50;;;9.50;99.90;;;;;;5029911;28;20689;-67
2023/12/25 07:36:08;;;;;;;10.17;2.20;;;9.50;99.90;;;;;;5029555;28;20287;-67
2023/12/25 07:38:35;;;;;;;8.77;1.93;;;9.50;99.90;;;;;;5012224;28;20197;-69
2023/12/25 07:41:02;;;;;;;18.17;2.50;;;9.50;99.90;;;;;;5012011;28;20299;-66
2023/12/25 07:43:31;;;;;;;7.27;2.13;;;9.50;99.90;;;;;;5029676;28;20742;-68
2023/12/25 07:45:58;;;;;;;14.47;3.00;;;9.50;99.90;;;;;;5010952;28;20283;-67
2023/12/25 07:48:25;;;;;;;10.67;2.33;;;9.50;99.90;;;;;;5028978;28;20233;-68
2023/12/25 07:50:52;;;;;;;11.83;2.73;;;9.50;99.90;;;;;;5011478;28;20717;-68
2023/12/25 07:53:21;;;;;;;18.47;2.50;;;9.60;99.90;;;;;;5029948;28;20300;-67
2023/12/25 07:55:48;;;;;;;6.00;2.10;;;9.60;99.90;;;;;;5027985;28;20575;-67
2023/12/25 07:58:15;;;;;;;8.60;2.00;;;9.60;99.90;;;;;;5029318;28;20278;-68
2023/12/25 08:00:43;;;;;;;8.07;2.00;;;9.70;99.90;;;;;;5029283;28;20681;-68
2023/12/25 08:03:11;;;;;;;5.73;2.30;;;9.70;99.90;;;;;;5029156;28;20311;-68
2023/12/25 08:05:38;;;;;;;12.17;2.57;;;9.80;99.90;;;;;;5029357;28;20224;-67
2023/12/25 08:08:06;;;;;;;10.17;3.13;;;9.90;99.90;;;;;;5012285;28;20218;-67
2023/12/25 08:10:35;;;;;;;13.77;2.33;;;10.00;99.90;;;;;;5028913;28;20214;-68
2023/12/25 08:13:02;;;;;;;13.00;2.50;;;10.00;99.90;;;;;;5011199;28;20204;-67
2023/12/25 08:15:30;;;;;;;7.37;2.00;;;10.00;99.90;;;;;;5011140;28;20572;-67
2023/12/25 08:17:57;;;;;;;13.93;3.23;;;10.00;99.90;;;;;;5029211;28;20258;-68
2023/12/25 08:20:24;;;;;;;7.77;2.37;;;10.00;99.90;;;;;;5011007;28;20293;-67
2023/12/25 08:22:52;;;;;;;12.67;2.17;;;10.00;99.90;;;;;;5029491;28;20197;-68
2023/12/25 08:25:19;;;;;;;7.60;2.23;;;10.10;99.90;;;;;;5028686;28;20194;-66
2023/12/25 08:27:47;;;;;;;10.23;2.47;;;10.10;99.90;;;;;;5029106;28;20210;-68
2023/12/25 08:30:14;;;;;;;15.07;2.83;;;10.20;99.90;;;;;;5029440;28;20611;-67
2023/12/25 08:32:41;;;;;;;7.73;2.33;;;10.30;99.90;;;;;;5028447;28;20201;-67
2023/12/25 08:35:09;;;;;;;9.77;2.37;;;10.40;99.90;;;;;;5029602;28;20241;-68
2023/12/25 08:37:36;;;;;;;14.13;2.47;;;10.40;99.90;;;;;;5029711;28;20227;-69
2023/12/25 08:40:04;;;;;;;12.53;2.80;;;10.30;99.90;;;;;;5029168;28;20229;-67
2023/12/25 08:42:31;;;;;;;9.50;2.57;;;10.40;99.90;;;;;;5011607;28;20578;-67
2023/12/25 08:45:02;;;;;;;13.67;3.43;;;10.60;99.90;;;;;;5027764;28;20206;-67
2023/12/25 08:47:29;;;;;;;16.33;3.10;;;10.70;99.90;;;;;;5032359;28;20203;-68
2023/12/25 08:49:56;;;;;;;13.23;2.70;;;10.90;99.90;;;;;;5032498;28;20223;-67
2023/12/25 08:52:24;;;;;;;9.30;2.20;;;11.20;99.90;;;;;;5032370;28;20210;-68
2023/12/25 08:54:51;;;;;;;11.40;2.30;;;11.30;99.90;;;;;;5032925;28;20197;-68
2023/12/25 08:57:18;;;;;;;13.47;3.10;;;11.20;99.90;;;;;;5032769;28;20192;-68
2023/12/25 08:59:49;;;;;;;7.40;2.27;;;11.20;99.90;;;;;;5006371;28;20244;-67
2023/12/25 09:02:17;;;;;;;13.80;2.97;;;11.10;99.90;;;;;;5028885;28;20205;-68
2023/12/25 09:04:44;;;;;;;11.33;2.60;;;11.10;99.90;;;;;;5030211;28;20197;-67
2023/12/25 09:07:11;;;;;;;20.27;2.70;;;11.00;99.90;;;;;;5029748;28;20296;-67
2023/12/25 09:09:38;;;;;;;11.13;2.40;;;11.00;99.90;;;;;;5032340;28;20645;-67
2023/12/25 09:12:06;;;;;;;8.77;2.23;;;10.90;99.90;;;;;;5032959;28;20232;-67
2023/12/25 09:14:33;;;;;;;8.37;2.37;;;10.90;99.90;;;;;;5032387;28;20194;-67
2023/12/25 09:17:00;;;;;;;10.23;2.70;;;10.80;99.90;;;;;;5014648;28;20203;-68
2023/12/25 09:19:28;;;;;;;15.90;2.77;;;10.80;99.90;;;;;;5032005;28;20209;-69
2023/12/25 09:21:55;;;;;;;10.60;3.10;;;10.90;99.90;;;;;;5032736;28;20193;-68
2023/12/25 09:24:22;;;;;;;15.60;2.73;;;11.00;99.90;;;;;;5032622;28;20708;-68
2023/12/25 09:26:49;;;;;;;11.10;2.33;;;11.00;99.90;;;;;;5032649;28;20708;-68
2023/12/25 09:29:16;;;;;;;13.40;2.77;;;11.10;99.90;;;;;;5032567;28;20253;-68
2023/12/25 09:31:43;;;;;;;8.10;1.90;;;11.10;99.90;;;;;;5032458;28;20261;-67
2023/12/25 09:34:10;;;;;;;10.20;2.47;;;11.00;99.90;;;;;;5032563;28;20274;-68
2023/12/25 09:36:39;;;;;;;9.37;2.50;;;11.00;99.90;;;;;;5032875;28;20278;-68
2023/12/25 09:39:06;;;;;;;11.70;2.93;;;10.90;99.90;;;;;;5032337;28;20282;-68
2023/12/25 09:41:34;;;;;;;9.57;2.03;;;10.80;99.90;;;;;;5031906;28;20220;-68
2023/12/25 09:44:02;;;;;;;8.80;1.90;;;10.70;99.90;;;;;;5014433;28;20273;-68
2023/12/25 09:46:29;;;;;;;10.30;2.43;;;10.60;99.60;;;;;;5031753;28;20217;-68
2023/12/25 09:48:58;;;;;;;8.23;2.07;;;10.50;99.40;;;;;;5031257;28;20590;-67
2023/12/25 09:51:27;;;;;;;6.93;2.13;;;10.50;99.20;;;;;;5014164;28;20199;-68
2023/12/25 09:53:55;;;;;;;7.83;2.00;;;10.60;98.90;;;;;;5013567;28;20209;-69
2023/12/25 09:56:24;;;;;;;11.17;1.97;;;10.70;98.80;;;;;;5030699;28;20304;-68
2023/12/25 09:58:52;;;;;;;7.87;2.27;;;10.90;99.00;;;;;;5013023;28;20201;-68
2023/12/25 10:01:21;;;;;;;9.67;2.47;;;11.20;98.60;;;;;;5013843;28;20289;-68
2023/12/25 10:03:48;;;;;;;8.63;1.93;;;11.50;98.00;;;;;;5013808;28;20716;-68
2023/12/25 10:06:15;;;;;;;6.63;2.07;;;11.70;97.50;;;;;;5031193;28;20204;-68
2023/12/25 10:08:42;;;;;;;8.33;2.10;;;11.70;97.20;;;;;;5031827;28;20246;-68
2023/12/25 10:11:14;;;;;;;7.20;2.07;;;11.80;97.30;;;;;;5031079;28;20212;-67
2023/12/25 10:13:41;;;;;;;6.63;2.03;;;11.80;96.80;;;;;;5031519;28;20449;-68
2023/12/25 10:16:08;;;;;;;5.73;1.60;;;11.80;96.30;;;;;;5031232;28;20270;-67
2023/12/25 10:18:38;;;;;;;8.37;2.00;;;11.80;95.50;;;;;;5030594;28;20187;-68
2023/12/25 10:21:09;;;;;;;8.40;2.10;;;11.90;95.10;;;;;;5031678;28;20623;-67
2023/12/25 10:23:37;;;;;;;7.17;1.87;;;12.00;95.10;;;;;;5031485;28;20297;-67
2023/12/25 10:26:05;;;;;;;8.33;2.20;;;12.20;94.70;;;;;;5013174;28;20209;-67
2023/12/25 10:28:34;;;;;;;8.03;2.07;;;12.80;94.00;;;;;;5031414;28;20210;-66
2023/12/25 10:31:03;;;;;;;5.60;2.23;;;13.20;93.30;;;;;;5030498;28;20285;-68
2023/12/25 10:33:31;;;;;;;10.00;2.20;;;13.50;92.50;;;;;;5012900;28;20194;-68
2023/12/25 10:36:03;;;;;;;6.17;2.07;;;13.80;92.00;;;;;;5031777;28;20694;-68
2023/12/25 10:38:33;;;;;;;8.23;2.10;;;13.90;91.40;;;;;;5031293;28;20604;-68
2023/12/25 10:41:18;;;;;;;9.30;1.97;;;14.00;90.90;;;;;;5031279;28;20194;-68
2023/12/25 10:43:51;;;;;;;10.30;2.33;;;13.80;90.50;;;;;;5027249;28;20194;-68
2023/12/25 10:46:21;;;;;;;7.87;2.40;;;13.70;91.00;;;;;;5030925;28;20281;-68
2023/12/25 10:48:50;;;;;;;8.90;2.57;;;13.60;90.60;;;;;;5030132;28;20203;-66
2023/12/25 10:51:24;;;;;;;4.93;1.87;;;13.40;90.60;;;;;;5030669;28;20620;-67
2023/12/25 10:53:52;;;;;;;4.90;1.90;;;13.00;91.10;;;;;;5030886;28;20817;-68
2023/12/25 10:56:21;;;;;;;6.90;1.80;;;12.90;91.30;;;;;;5030149;28;20349;-68
2023/12/25 10:58:52;;;;;;;9.30;2.07;;;12.80;91.20;;;;;;5011352;28;20258;-68
2023/12/25 11:01:24;;;;;;;6.80;2.00;;;12.60;91.40;;;;;;5026730;28;20191;-67
2023/12/25 11:03:52;;;;;;;11.50;2.30;;;12.40;91.90;;;;;;5029960;28;20270;-68
2023/12/25 11:06:20;;;;;;;10.57;2.20;;;12.30;92.30;;;;;;5025531;28;20296;-68
2023/12/25 11:08:48;;;;;;;9.53;2.90;;;12.20;92.20;;;;;;5012064;28;20215;-68
2023/12/25 11:11:16;;;;;;;7.37;2.37;;;12.20;92.30;;;;;;5029765;28;20218;-67
2023/12/25 11:13:43;;;;;;;6.93;1.80;;;12.10;92.50;;;;;;5011319;28;20206;-67
2023/12/25 11:16:12;;;;;;;3.47;1.70;;;11.90;92.70;;;;;;5012023;28;20235;-68
2023/12/25 11:18:39;;;;;;;9.30;2.20;;;11.80;92.90;;;;;;5029138;28;20202;-68
2023/12/25 11:21:07;;;;;;;8.67;2.27;;;11.60;93.70;;;;;;5030695;28;20816;-67
2023/12/25 11:23:36;;;;;;;13.43;2.80;;;11.40;93.60;;;;;;5030290;28;20320;-67
2023/12/25 11:26:06;;;;;;;8.03;2.33;;;11.30;93.90;;;;;;5030045;28;20199;-67
2023/12/25 11:28:36;;;;;;;10.00;2.10;;;11.10;94.20;;;;;;5029725;28;20270;-67
2023/12/25 11:31:04;;;;;;;9.33;2.23;;;11.00;94.60;;;;;;5030249;28;20616;-67
2023/12/25 11:33:43;;;;;;;6.90;2.00;;;10.90;94.90;;;;;;5029888;28;20685;-67
2023/12/25 11:36:14;;;;;;;10.23;2.37;;;10.80;95.10;;;;;;5025106;28;20210;-68
2023/12/25 11:38:45;;;;;;;10.60;2.67;;;10.70;95.50;;;;;;5029822;28;20206;-68
2023/12/25 11:41:17;;;;;;;6.03;1.97;;;10.70;95.40;;;;;;5011500;28;20651;-68
2023/12/25 11:43:47;;;;;;;8.00;2.40;;;10.60;95.30;;;;;;5029602;28;20729;-69
2023/12/25 11:46:19;;;;;;;11.30;2.50;;;10.60;95.40;;;;;;5011854;28;20602;-67
2023/12/25 11:48:50;;;;;;;6.50;2.10;;;10.50;95.40;;;;;;5029282;28;20209;-67
2023/12/25 11:51:22;;;;;;;8.40;2.10;;;10.40;95.40;;;;;;5029261;28;20244;-67
2023/12/25 11:53:52;;;;;;;10.37;2.53;;;10.40;95.60;;;;;;5027903;28;20284;-67
2023/12/25 11:56:19;;;;;;;9.27;2.43;;;10.30;95.60;;;;;;5020874;28;20201;-67
2023/12/25 11:58:47;;;;;;;8.07;2.47;;;10.20;95.80;;;;;;5029228;28;20224;-67
2023/12/25 12:01:18;;;;;;;7.40;2.07;;;10.20;95.80;;;;;;5011653;28;20292;-67
2023/12/25 12:03:51;;;;;;;7.40;2.00;;;10.10;95.90;;;;;;5029146;28;20253;-66
2023/12/25 12:06:19;;;;;;;19.13;2.80;;;10.00;95.90;;;;;;5029699;28;20197;-67
2023/12/25 12:08:50;;;;;;;9.37;2.43;;;10.00;96.00;;;;;;5029529;28;20221;-68
2023/12/25 12:11:20;;;;;;;17.30;2.70;;;9.90;96.60;;;;;;5028747;28;20205;-67
2023/12/25 12:13:47;;;;;;;9.30;2.30;;;9.90;96.80;;;;;;5029272;28;20559;-69
2023/12/25 12:16:14;;;;;;;11.17;2.17;;;9.90;96.90;;;;;;5029455;28;20229;-68
2023/12/25 12:18:41;;;;;;;9.50;2.30;;;9.90;96.90;;;;;;5024937;28;20211;-68
2023/12/25 12:21:10;;;;;;;8.47;2.13;;;9.90;97.00;;;;;;5029603;28;20332;-69
2023/12/25 12:23:37;;;;;;;13.77;2.33;;;9.80;97.00;;;;;;5029418;28;20195;-67
2023/12/25 12:26:17;;;;;;;9.80;2.47;;;9.80;97.20;;;;;;5028748;28;20195;-68
2023/12/25 12:28:44;;;;;;;7.10;2.23;;;9.80;97.30;;;;;;5029324;28;20517;-68
2023/12/25 12:31:11;;;;;;;7.33;1.87;;;9.80;97.50;;;;;;5028693;28;20274;-67
2023/12/25 12:33:38;;;;;;;8.97;2.30;;;9.70;97.80;;;;;;5011082;28;20337;-67
2023/12/25 12:36:10;;;;;;;14.80;2.50;;;9.70;97.50;;;;;;5029364;28;20268;-67
2023/12/25 12:38:41;;;;;;;12.77;3.03;;;9.70;97.20;;;;;;5029393;28;20267;-68
2023/12/25 12:41:08;;;;;;;10.37;2.70;;;9.60;96.50;;;;;;5028567;28;20196;-68
2023/12/25 12:43:35;;;;;;;6.93;2.07;;;9.60;96.70;;;;;;5011374;28;20577;-67
2023/12/25 12:46:16;;;;;;;8.90;2.17;;;9.60;96.50;;;;;;5028931;28;20206;-67
2023/12/25 12:48:44;;;;;;;9.33;2.40;;;9.60;96.50;;;;;;5027600;28;20234;-67
2023/12/25 12:51:16;;;;;;;13.67;2.57;;;9.60;96.40;;;;;;5021829;28;20200;-67
2023/12/25 12:53:43;;;;;;;7.87;2.20;;;9.60;96.50;;;;;;5029219;28;20197;-68
2023/12/25 12:56:11;;;;;;;11.77;2.80;;;9.50;96.50;;;;;;5010037;28;20624;-69
2023/12/25 12:58:38;;;;;;;10.87;2.50;;;9.50;96.80;;;;;;5028224;28;20200;-67